Time;durP1;ratioP1;P1;durP2;ratioP2;P2;SDS_P1;SDS_P2;PMS_P1;PMS_P2;Temp;Humidity;BMP_temperature;BMP_pressure;BME280_temperature;BME280_humidity;BME280_pressure;Samples;Min_cycle;Max_cycle;Signal;HPM_P1;HPM_P2
2022/07/07 00:00:48;;;;;;;3.10;1.80;;;-7.10;99.90;;;;;;5064638;28;20167;-70
2022/07/07 00:03:14;;;;;;;2.43;2.23;;;-7.70;99.90;;;;;;5065722;28;20491;-71
2022/07/07 00:05:40;;;;;;;2.10;1.87;;;-7.30;99.90;;;;;;5066078;28;20167;-72
2022/07/07 00:08:06;;;;;;;2.63;2.47;;;-8.20;99.90;;;;;;5064735;28;20175;-70
2022/07/07 00:10:32;;;;;;;2.87;2.27;;;-6.70;99.90;;;;;;5064407;28;20238;-65
2022/07/07 00:12:57;;;;;;;3.60;2.57;;;-7.50;99.90;;;;;;5065157;28;20571;-67
2022/07/07 00:15:23;;;;;;;3.47;2.60;;;-8.50;99.90;;;;;;5065349;28;20259;-72
2022/07/07 00:17:49;;;;;;;4.33;2.83;;;-10.60;99.90;;;;;;5064529;28;20178;-71
2022/07/07 00:20:15;;;;;;;2.23;1.73;;;-10.70;99.90;;;;;;5064133;28;20182;-72
2022/07/07 00:22:41;;;;;;;2.23;2.13;;;-12.40;99.90;;;;;;5065599;28;20201;-71
2022/07/07 00:25:07;;;;;;;3.37;1.97;;;-12.10;99.90;;;;;;5065888;28;20190;-73
2022/07/07 00:27:33;;;;;;;2.17;1.87;;;-12.00;99.90;;;;;;5064237;28;20567;-72
2022/07/07 00:29:59;;;;;;;2.40;2.17;;;-13.20;99.90;;;;;;5065499;28;20250;-75
2022/07/07 00:32:25;;;;;;;6.47;2.70;;;-13.70;99.90;;;;;;5065490;28;20168;-75
2022/07/07 00:34:50;;;;;;;3.50;1.87;;;-11.20;99.90;;;;;;5064207;28;20195;-71
2022/07/07 00:37:16;;;;;;;8.43;2.37;;;-10.70;99.90;;;;;;5064274;28;20188;-70
2022/07/07 00:39:42;;;;;;;2.93;2.10;;;-9.90;99.90;;;;;;5065396;28;20561;-75
2022/07/07 00:42:16;;;;;;;1.93;1.80;;;-10.60;99.90;;;;;;5065586;28;20249;-70
2022/07/07 00:44:43;;;;;;;3.23;2.67;;;-9.90;99.90;;;;;;5064488;28;20163;-73
2022/07/07 00:47:09;;;;;;;2.70;2.17;;;-9.90;99.90;;;;;;5064510;28;20196;-68
2022/07/07 00:49:38;;;;;;;2.03;1.93;;;-10.50;99.90;;;;;;5065995;28;20209;-72
2022/07/07 00:52:07;;;;;;;3.53;3.30;;;-8.90;99.90;;;;;;5065129;28;20168;-73
2022/07/07 00:54:32;;;;;;;2.07;1.93;;;17.70;99.90;;;;;;5064046;28;20179;-76
2022/07/07 00:56:58;;;;;;;4.00;2.13;;;18.50;99.90;;;;;;5066021;28;20469;-75
2022/07/07 00:59:24;;;;;;;5.37;2.30;;;18.50;99.90;;;;;;5064391;28;20251;-76
2022/07/07 01:01:50;;;;;;;2.50;2.33;;;18.40;99.90;;;;;;5064499;28;20278;-72
2022/07/07 01:04:17;;;;;;;3.63;2.53;;;18.50;99.90;;;;;;5065940;28;20551;-70
2022/07/07 01:06:43;;;;;;;2.60;2.40;;;18.50;99.90;;;;;;5064534;28;20306;-74
2022/07/07 01:09:09;;;;;;;3.80;2.07;;;18.50;99.90;;;;;;5063410;28;20485;-70
2022/07/07 01:11:55;;;;;;;5.43;2.10;;;18.30;99.90;;;;;;5065902;28;20175;-75
2022/07/07 01:14:23;;;;;;;2.40;2.20;;;18.30;99.90;;;;;;5064598;28;20513;-64
2022/07/07 01:16:50;;;;;;;2.80;2.30;;;18.30;99.90;;;;;;5067635;28;20258;-74
2022/07/07 01:19:17;;;;;;;6.40;2.73;;;18.40;99.90;;;;;;5069647;28;20167;-73
2022/07/07 01:22:08;;;;;;;2.40;2.20;;;18.30;99.90;;;;;;5067820;28;20188;-74
2022/07/07 01:24:34;;;;;;;2.03;1.90;;;18.30;99.90;;;;;;5069189;28;20183;-74
2022/07/07 01:27:09;;;;;;;6.17;2.63;;;18.30;99.90;;;;;;5067304;28;20168;-74
2022/07/07 01:29:36;;;;;;;5.37;1.90;;;18.30;99.90;;;;;;5067335;28;20175;-69
2022/07/07 01:32:04;;;;;;;5.07;2.00;;;18.30;99.90;;;;;;5068250;28;20221;-74
2022/07/07 01:34:30;;;;;;;1.83;1.73;;;18.20;99.90;;;;;;5068674;28;20172;-66
2022/07/07 01:36:56;;;;;;;2.37;2.03;;;18.20;99.90;;;;;;5067049;28;20200;-70
2022/07/07 01:39:22;;;;;;;5.87;2.17;;;18.10;99.90;;;;;;5069145;28;20171;-69
2022/07/07 01:41:48;;;;;;;2.30;2.07;;;17.90;99.90;;;;;;5066889;28;20633;-70
2022/07/07 01:44:14;;;;;;;2.20;2.00;;;17.80;99.90;;;;;;5067519;28;20579;-75
2022/07/07 01:46:39;;;;;;;2.90;1.87;;;17.80;99.90;;;;;;5069061;28;20583;-76
2022/07/07 01:49:05;;;;;;;4.67;2.67;;;17.70;99.90;;;;;;5066526;28;20165;-70
2022/07/07 01:51:31;;;;;;;2.20;2.10;;;17.70;99.90;;;;;;5067763;28;20229;-72
2022/07/07 01:53:57;;;;;;;2.73;2.53;;;17.70;99.90;;;;;;5069136;28;20595;-72
2022/07/07 01:56:22;;;;;;;1.97;1.60;;;17.80;99.90;;;;;;5066608;28;20258;-69
2022/07/07 01:58:48;;;;;;;6.53;3.07;;;17.80;99.90;;;;;;5068235;28;20171;-72
2022/07/07 02:01:14;;;;;;;2.20;2.00;;;17.50;99.90;;;;;;5068239;28;20280;-72
2022/07/07 02:03:40;;;;;;;2.60;2.30;;;17.90;99.90;;;;;;5066464;28;20466;-66
2022/07/07 02:06:05;;;;;;;1.97;1.83;;;17.80;99.90;;;;;;5067951;28;20221;-69
2022/07/07 02:08:31;;;;;;;2.50;2.37;;;17.40;99.90;;;;;;5067737;28;20602;-69
2022/07/07 02:11:12;;;;;;;7.53;2.40;;;17.20;99.90;;;;;;5066517;28;20174;-72
2022/07/07 02:13:42;;;;;;;2.50;2.30;;;16.70;99.90;;;;;;5068669;28;20217;-67
2022/07/07 02:16:08;;;;;;;2.47;2.27;;;16.40;99.90;;;;;;5067217;28;20196;-71
2022/07/07 02:18:38;;;;;;;2.37;2.17;;;16.30;99.90;;;;;;5065921;28;20175;-73
2022/07/07 02:21:05;;;;;;;4.27;2.80;;;15.50;99.90;;;;;;5066507;28;20168;-71
2022/07/07 02:23:31;;;;;;;2.07;1.83;;;15.50;99.90;;;;;;5067589;28;20199;-76
2022/07/07 02:25:57;;;;;;;2.40;2.03;;;15.50;99.90;;;;;;5067775;28;20168;-75
2022/07/07 02:28:23;;;;;;;2.93;2.73;;;15.50;99.90;;;;;;5066339;28;20187;-73
2022/07/07 02:30:52;;;;;;;3.93;2.47;;;15.50;99.90;;;;;;5067928;28;20603;-76
2022/07/07 02:33:19;;;;;;;2.83;2.53;;;15.50;99.90;;;;;;5068191;28;20198;-74
2022/07/07 02:35:46;;;;;;;3.27;2.70;;;14.70;99.90;;;;;;5066341;28;20180;-71
2022/07/07 02:38:11;;;;;;;2.63;2.43;;;14.50;99.90;;;;;;5067205;28;20198;-76
2022/07/07 02:40:37;;;;;;;4.77;2.53;;;14.60;99.90;;;;;;5067649;28;20176;-75
2022/07/07 02:43:03;;;;;;;3.13;2.83;;;14.80;99.90;;;;;;5065817;28;20202;-76
2022/07/07 02:45:29;;;;;;;2.17;2.07;;;14.60;99.90;;;;;;5066688;28;20167;-75
2022/07/07 02:47:55;;;;;;;3.10;1.97;;;13.80;99.90;;;;;;5067132;28;20633;-64
2022/07/07 02:50:21;;;;;;;4.53;2.07;;;17.70;99.90;;;;;;5065977;28;20186;-69
2022/07/07 02:52:47;;;;;;;2.10;2.00;;;17.70;99.90;;;;;;5067808;28;20179;-76
2022/07/07 02:55:12;;;;;;;4.47;2.90;;;17.70;99.90;;;;;;5066469;28;20200;-70
2022/07/07 02:57:38;;;;;;;3.60;2.43;;;17.60;99.90;;;;;;5065118;28;20175;-68
2022/07/07 03:00:08;;;;;;;9.57;2.83;;;17.50;99.90;;;;;;5067740;28;20175;-65
2022/07/07 03:02:34;;;;;;;3.23;3.03;;;17.60;99.90;;;;;;5066604;28;20609;-67
2022/07/07 03:05:00;;;;;;;3.27;2.20;;;17.60;99.90;;;;;;5065980;28;20168;-67
2022/07/07 03:07:26;;;;;;;4.97;3.00;;;17.70;99.90;;;;;;5067484;28;20453;-76
2022/07/07 03:09:52;;;;;;;3.37;2.77;;;17.60;99.90;;;;;;5066012;28;20172;-74
2022/07/07 03:12:18;;;;;;;2.73;2.53;;;17.60;99.90;;;;;;5066154;28;20559;-66
2022/07/07 03:14:43;;;;;;;4.60;2.40;;;17.70;99.90;;;;;;5067509;28;20185;-75
2022/07/07 03:17:09;;;;;;;6.20;3.20;;;17.70;99.90;;;;;;5065642;28;20180;-71
2022/07/07 03:19:35;;;;;;;13.60;3.47;;;17.70;99.90;;;;;;5065362;28;20497;-77
2022/07/07 03:22:02;;;;;;;3.97;3.73;;;17.60;99.90;;;;;;5067073;28;20649;-73
2022/07/07 03:24:31;;;;;;;4.43;2.97;;;17.60;99.90;;;;;;5064947;28;20196;-66
2022/07/07 03:26:59;;;;;;;5.20;2.67;;;17.60;99.90;;;;;;5066176;28;20175;-77
2022/07/07 03:29:25;;;;;;;4.47;2.80;;;17.50;99.90;;;;;;5067149;28;20203;-74
2022/07/07 03:31:51;;;;;;;2.83;2.63;;;17.60;99.90;;;;;;5064565;28;20259;-75
2022/07/07 03:34:17;;;;;;;4.97;3.10;;;17.60;99.90;;;;;;5065912;28;20249;-70
2022/07/07 03:36:43;;;;;;;4.07;2.87;;;17.60;99.90;;;;;;5048604;28;20194;-73
2022/07/07 03:39:08;;;;;;;5.50;3.20;;;17.60;99.90;;;;;;5064485;28;20663;-76
2022/07/07 03:41:34;;;;;;;4.37;2.47;;;17.70;99.90;;;;;;5066255;28;20248;-73
2022/07/07 03:44:00;;;;;;;3.37;3.00;;;17.50;99.90;;;;;;5066166;28;20164;-70
2022/07/07 03:46:26;;;;;;;5.70;2.97;;;17.50;99.90;;;;;;5064853;28;20176;-72
2022/07/07 03:48:51;;;;;;;6.23;2.80;;;17.60;99.90;;;;;;5066497;28;20191;-71
2022/07/07 03:51:17;;;;;;;3.90;3.00;;;17.70;99.90;;;;;;5065854;28;20168;-75
2022/07/07 03:53:43;;;;;;;3.43;3.13;;;17.80;99.90;;;;;;5064559;28;20191;-68
2022/07/07 03:56:09;;;;;;;5.13;3.00;;;17.70;99.90;;;;;;5066780;28;20617;-73
2022/07/07 03:58:34;;;;;;;3.77;3.10;;;17.70;99.90;;;;;;5063930;28;20171;-74
2022/07/07 04:01:00;;;;;;;4.60;3.60;;;17.80;99.90;;;;;;5065381;28;20168;-74
2022/07/07 04:03:26;;;;;;;8.27;3.77;;;17.80;99.90;;;;;;5066527;28;20217;-75
2022/07/07 04:05:52;;;;;;;5.00;2.80;;;18.00;99.90;;;;;;5064507;28;20524;-75
2022/07/07 04:08:18;;;;;;;4.00;3.07;;;18.00;99.90;;;;;;5065310;28;20233;-69
2022/07/07 04:10:44;;;;;;;5.70;3.63;;;18.00;99.90;;;;;;5066231;28;20169;-73
2022/07/07 04:13:10;;;;;;;4.97;2.60;;;18.10;99.90;;;;;;5063259;28;20176;-67
2022/07/07 04:15:36;;;;;;;5.17;3.10;;;18.20;99.90;;;;;;5065793;28;20167;-70
2022/07/07 04:18:02;;;;;;;8.13;3.87;;;18.20;99.90;;;;;;5065856;28;20178;-68
2022/07/07 04:20:29;;;;;;;4.70;2.77;;;18.20;99.90;;;;;;5064337;28;20180;-75
2022/07/07 04:22:56;;;;;;;7.10;4.13;;;18.30;99.90;;;;;;5064717;28;20195;-66
2022/07/07 04:25:22;;;;;;;3.03;2.47;;;18.30;99.90;;;;;;5065649;28;20176;-67
2022/07/07 04:27:48;;;;;;;4.83;2.87;;;18.10;99.90;;;;;;5064282;28;20475;-75
2022/07/07 04:30:14;;;;;;;3.47;2.60;;;18.20;99.90;;;;;;5066135;28;20175;-76
2022/07/07 04:32:41;;;;;;;3.20;2.10;;;18.20;99.90;;;;;;5065427;28;20202;-71
2022/07/07 04:35:08;;;;;;;3.17;2.33;;;18.20;99.90;;;;;;5064373;28;20164;-68
2022/07/07 04:37:33;;;;;;;5.97;2.60;;;18.30;99.90;;;;;;5063965;28;20788;-68
2022/07/07 04:39:59;;;;;;;2.13;1.87;;;18.50;99.90;;;;;;5065451;28;20254;-70
2022/07/07 04:42:25;;;;;;;3.77;3.27;;;18.50;99.90;;;;;;5065760;28;20205;-74
2022/07/07 04:44:51;;;;;;;2.37;1.60;;;18.40;99.90;;;;;;5064039;28;20183;-77
2022/07/07 04:47:17;;;;;;;3.77;1.80;;;18.10;99.90;;;;;;5065771;28;20191;-75
2022/07/07 04:49:43;;;;;;;16.40;2.83;;;18.10;99.90;;;;;;5066360;28;20172;-77
2022/07/07 04:52:09;;;;;;;1.93;1.47;;;18.10;99.90;;;;;;5067324;28;20582;-74
2022/07/07 04:54:35;;;;;;;2.87;1.60;;;17.90;99.90;;;;;;5069046;28;20182;-76
2022/07/07 04:57:01;;;;;;;4.80;2.40;;;17.70;99.90;;;;;;5068018;28;20507;-73
2022/07/07 04:59:26;;;;;;;3.27;2.70;;;17.70;99.90;;;;;;5068485;28;20214;-75
2022/07/07 05:01:52;;;;;;;1.73;1.20;;;17.60;99.90;;;;;;5069974;28;20195;-76
2022/07/07 05:04:18;;;;;;;3.10;1.83;;;17.00;99.90;;;;;;5067992;28;20168;-76
2022/07/07 05:06:44;;;;;;;8.50;4.33;;;15.90;99.90;;;;;;5068772;28;20176;-80
2022/07/07 05:09:09;;;;;;;3.97;1.80;;;-13.90;99.90;;;;;;5069887;28;20191;-73
2022/07/07 05:11:36;;;;;;;3.63;1.80;;;-9.80;99.90;;;;;;5067531;28;20168;-77
2022/07/07 05:14:02;;;;;;;1.83;1.73;;;-4.00;99.90;;;;;;5069066;28;20594;-75
2022/07/07 05:16:29;;;;;;;11.23;2.50;;;-6.60;99.90;;;;;;5069342;28;20179;-77
2022/07/07 05:18:55;;;;;;;2.77;1.90;;;-7.40;99.90;;;;;;5067265;28;20179;-69
2022/07/07 05:21:21;;;;;;;1.60;1.50;;;-7.30;99.90;;;;;;5067838;28;20582;-76
2022/07/07 05:23:47;;;;;;;2.50;1.17;;;-7.10;99.90;;;;;;5069162;28;20164;-73
2022/07/07 05:26:12;;;;;;;2.97;1.90;;;-5.30;99.90;;;;;;5067403;28;20282;-74
2022/07/07 05:28:41;;;;;;;1.80;1.70;;;-6.30;99.90;;;;;;5068225;28;20297;-75
2022/07/07 05:31:15;;;;;;;6.27;2.03;;;-6.60;99.90;;;;;;5064422;28;20177;-77
2022/07/07 05:33:42;;;;;;;1.93;1.73;;;-5.60;99.90;;;;;;5067904;28;20167;-76
2022/07/07 05:36:08;;;;;;;5.10;1.80;;;-5.30;99.90;;;;;;5068674;28;20241;-68
2022/07/07 05:38:34;;;;;;;5.40;2.03;;;-6.60;99.90;;;;;;5066988;28;20188;-67
2022/07/07 05:41:01;;;;;;;4.23;1.80;;;-6.00;99.90;;;;;;5067955;28;20683;-71
2022/07/07 05:43:27;;;;;;;3.17;2.33;;;-11.10;99.90;;;;;;5068472;28;20195;-67
2022/07/07 05:45:53;;;;;;;2.10;1.27;;;-8.60;99.90;;;;;;5067082;28;20188;-77
2022/07/07 05:48:19;;;;;;;4.83;1.37;;;-11.20;99.90;;;;;;5067112;28;20227;-68
2022/07/07 05:50:45;;;;;;;4.40;1.80;;;-13.50;99.90;;;;;;5066748;28;20191;-71
2022/07/07 05:53:11;;;;;;;4.57;1.70;;;-12.50;99.90;;;;;;5068821;28;20199;-67
2022/07/07 05:55:37;;;;;;;3.73;1.97;;;-10.10;99.90;;;;;;5066529;28;20175;-68
2022/07/07 05:58:02;;;;;;;7.43;1.57;;;-10.20;99.90;;;;;;5068607;28;20468;-66
2022/07/07 06:00:28;;;;;;;1.40;1.37;;;-6.20;99.90;;;;;;5067523;28;20172;-70
2022/07/07 06:02:54;;;;;;;7.03;3.10;;;-10.10;99.90;;;;;;5065154;28;20230;-67
2022/07/07 06:05:21;;;;;;;4.40;1.40;;;-10.50;99.90;;;;;;5067817;28;20167;-72
2022/07/07 06:07:47;;;;;;;4.13;1.30;;;-12.30;99.90;;;;;;5067513;28;20168;-72
2022/07/07 06:10:16;;;;;;;1.07;1.00;;;-14.60;99.90;;;;;;5067123;28;20167;-76
2022/07/07 06:12:42;;;;;;;1.43;0.90;;;-10.10;99.90;;;;;;5066689;28;20176;-77
2022/07/07 06:15:09;;;;;;;2.03;1.07;;;-11.80;99.90;;;;;;5067491;28;20172;-75
2022/07/07 06:17:35;;;;;;;4.47;1.37;;;-12.60;99.90;;;;;;5068082;28;20291;-66
2022/07/07 06:20:02;;;;;;;1.03;1.03;;;-16.80;99.90;;;;;;5064415;28;20236;-68
2022/07/07 06:22:28;;;;;;;4.60;1.57;;;-12.90;99.90;;;;;;5059509;28;20607;-69
2022/07/07 06:24:54;;;;;;;10.43;3.10;;;-14.40;99.90;;;;;;5060238;28;20239;-65
2022/07/07 06:27:20;;;;;;;2.60;1.20;;;-15.10;99.90;;;;;;5060363;28;20659;-67
2022/07/07 06:29:47;;;;;;;1.97;1.10;;;-14.50;99.90;;;;;;5060113;28;20645;-68
2022/07/07 06:32:16;;;;;;;1.33;1.20;;;-17.90;99.90;;;;;;5058482;28;20502;-76
2022/07/07 06:34:42;;;;;;;1.70;0.80;;;-17.00;99.90;;;;;;5068242;28;20472;-71
2022/07/07 06:37:08;;;;;;;2.47;1.77;;;-16.30;99.90;;;;;;5068846;28;20194;-68
2022/07/07 06:39:34;;;;;;;7.87;3.30;;;-13.60;99.90;;;;;;5067007;28;20179;-69
2022/07/07 06:42:01;;;;;;;6.77;2.13;;;-13.40;99.90;;;;;;5066352;28;20229;-72
2022/07/07 06:44:30;;;;;;;7.73;4.23;;;-18.60;99.90;;;;;;5068846;28;20550;-74
2022/07/07 06:47:00;;;;;;;2.70;2.17;;;-15.90;99.90;;;;;;5066045;28;20278;-77
2022/07/07 06:49:27;;;;;;;3.33;1.80;;;-19.50;99.90;;;;;;5066271;28;20190;-76
2022/07/07 06:51:53;;;;;;;1.47;1.37;;;-17.80;99.90;;;;;;5067824;28;20649;-77
2022/07/07 06:54:19;;;;;;;2.50;1.43;;;-14.20;99.90;;;;;;5068130;28;20248;-74
2022/07/07 06:56:46;;;;;;;3.60;2.80;;;-12.90;99.90;;;;;;5064231;28;20194;-75
2022/07/07 06:59:13;;;;;;;2.70;1.23;;;-17.20;99.90;;;;;;5065722;28;20183;-77
2022/07/07 07:01:39;;;;;;;5.33;2.40;;;-16.30;99.90;;;;;;5069557;28;20534;-76
2022/07/07 07:04:07;;;;;;;4.53;1.77;;;-12.40;99.90;;;;;;5068010;28;20263;-75
2022/07/07 07:06:33;;;;;;;2.17;1.47;;;-13.10;99.90;;;;;;5065621;28;20221;-78
2022/07/07 07:08:59;;;;;;;8.07;4.70;;;-14.00;99.90;;;;;;5065916;28;20196;-73
2022/07/07 07:11:29;;;;;;;6.00;2.27;;;-14.90;99.90;;;;;;5067265;28;20178;-68
2022/07/07 07:13:56;;;;;;;1.80;1.20;;;-12.90;99.90;;;;;;5067030;28;20178;-67
2022/07/07 07:16:22;;;;;;;6.00;1.60;;;-13.00;99.90;;;;;;5067269;28;20590;-67
2022/07/07 07:18:48;;;;;;;3.17;1.30;;;-15.80;99.90;;;;;;5064709;28;20268;-70
2022/07/07 07:21:14;;;;;;;4.23;1.27;;;-14.20;99.90;;;;;;5064929;28;20350;-67
2022/07/07 07:23:40;;;;;;;1.77;0.87;;;-8.50;99.90;;;;;;5068693;28;20210;-67
2022/07/07 07:26:07;;;;;;;2.47;0.90;;;-15.80;99.90;;;;;;5070412;28;20179;-69
2022/07/07 07:28:33;;;;;;;4.83;1.20;;;-19.50;99.90;;;;;;5065890;28;20172;-66
2022/07/07 07:30:59;;;;;;;1.60;1.00;;;-14.50;99.90;;;;;;5071497;28;20210;-68
2022/07/07 07:33:25;;;;;;;3.00;2.27;;;-16.10;99.90;;;;;;5065707;28;20207;-68
2022/07/07 07:35:50;;;;;;;3.53;2.13;;;-17.60;99.90;;;;;;5068619;28;20582;-76
2022/07/07 07:38:16;;;;;;;6.23;1.60;;;-17.10;99.90;;;;;;5067731;28;20280;-76
2022/07/07 07:40:42;;;;;;;3.90;1.77;;;-12.20;99.90;;;;;;5065514;28;20582;-78
2022/07/07 07:43:08;;;;;;;2.30;0.93;;;-18.80;99.90;;;;;;5065012;28;20214;-77
2022/07/07 07:45:34;;;;;;;3.80;1.07;;;-17.10;99.90;;;;;;5067028;28;20598;-74
2022/07/07 07:48:02;;;;;;;3.90;1.70;;;-18.80;99.90;;;;;;5064404;28;20203;-68
2022/07/07 07:50:29;;;;;;;3.83;1.23;;;-15.50;99.90;;;;;;5066898;28;20190;-70
2022/07/07 07:52:56;;;;;;;4.80;1.30;;;-11.50;99.90;;;;;;5067964;28;20183;-66
2022/07/07 07:55:22;;;;;;;9.30;1.83;;;-11.80;99.90;;;;;;5065342;28;20179;-75
2022/07/07 07:57:49;;;;;;;4.53;1.47;;;-10.90;99.90;;;;;;5064064;28;20179;-70
2022/07/07 08:00:17;;;;;;;3.63;1.60;;;-12.20;99.90;;;;;;5067065;28;20198;-69
2022/07/07 08:02:43;;;;;;;1.93;1.10;;;-13.50;99.90;;;;;;5063497;28;20204;-72
2022/07/07 08:05:12;;;;;;;3.03;1.17;;;-9.80;99.90;;;;;;5066251;28;20218;-75
2022/07/07 08:07:40;;;;;;;4.90;1.50;;;-9.00;99.90;;;;;;5067165;28;20242;-73
2022/07/07 08:10:08;;;;;;;4.23;1.20;;;-10.60;99.90;;;;;;5066082;28;20211;-67
2022/07/07 08:12:34;;;;;;;3.37;0.90;;;-8.20;99.90;;;;;;5065267;28;20172;-64
2022/07/07 08:15:00;;;;;;;4.13;1.60;;;-11.10;99.90;;;;;;5064420;28;20643;-65
2022/07/07 08:17:26;;;;;;;10.03;1.53;;;-11.20;99.90;;;;;;5069343;28;20192;-67
2022/07/07 08:19:52;;;;;;;7.73;2.60;;;-13.60;99.90;;;;;;5065203;28;20179;-67
2022/07/07 08:22:18;;;;;;;4.03;1.23;;;-25.90;99.90;;;;;;5065324;28;20282;-66
2022/07/07 08:24:44;;;;;;;1.60;0.90;;;-19.10;99.90;;;;;;5068027;28;20221;-71
2022/07/07 08:27:10;;;;;;;3.43;1.63;;;-17.50;99.90;;;;;;5066817;28;20208;-66
2022/07/07 08:29:39;;;;;;;2.40;1.20;;;-17.00;99.90;;;;;;5064994;28;20181;-66
2022/07/07 08:32:14;;;;;;;2.87;1.43;;;-17.30;99.60;;;;;;5066005;28;20229;-68
2022/07/07 08:34:41;;;;;;;4.07;1.33;;;-14.60;99.90;;;;;;5065357;28;20179;-70
2022/07/07 08:37:11;;;;;;;7.20;1.40;;;-17.10;99.00;;;;;;5067115;28;20195;-68
2022/07/07 08:39:37;;;;;;;3.07;1.10;;;-16.50;98.70;;;;;;5064522;28;20285;-64
2022/07/07 08:42:03;;;;;;;5.20;1.03;;;-15.70;98.40;;;;;;5063492;28;20191;-70
2022/07/07 08:44:29;;;;;;;3.80;1.53;;;-12.90;99.70;;;;;;5065905;28;20182;-71
2022/07/07 08:46:55;;;;;;;2.17;1.17;;;-11.60;99.90;;;;;;5064156;28;20187;-67
2022/07/07 08:49:21;;;;;;;3.17;1.13;;;-9.90;99.90;;;;;;5065850;28;20617;-66
2022/07/07 08:51:47;;;;;;;3.07;1.57;;;-9.90;99.90;;;;;;5065728;28;20210;-70
2022/07/07 08:54:14;;;;;;;3.37;1.20;;;-9.00;99.90;;;;;;5063890;28;20246;-67
2022/07/07 08:56:42;;;;;;;1.43;0.80;;;-10.90;99.90;;;;;;5063331;28;20522;-70
2022/07/07 08:59:10;;;;;;;6.83;1.53;;;-15.10;99.90;;;;;;5065506;28;20194;-66
2022/07/07 09:01:36;;;;;;;5.77;1.20;;;19.20;99.90;;;;;;5064053;28;20549;-66
2022/07/07 09:04:04;;;;;;;5.73;1.27;;;19.80;99.90;;;;;;5067596;28;20258;-69
2022/07/07 09:06:30;;;;;;;1.60;0.80;;;19.50;99.90;;;;;;5063599;28;20188;-66
2022/07/07 09:08:57;;;;;;;5.43;1.70;;;18.80;99.90;;;;;;5067456;28;20179;-72
2022/07/07 09:11:28;;;;;;;2.90;1.07;;;-18.40;99.90;;;;;;5064848;28;20180;-71
2022/07/07 09:14:14;;;;;;;3.50;1.10;;;-15.70;99.90;;;;;;5063853;28;20578;-70
2022/07/07 09:16:40;;;;;;;2.90;0.87;;;-11.60;99.90;;;;;;5064647;28;20194;-68
2022/07/07 09:19:19;;;;;;;3.80;1.47;;;-8.60;99.90;;;;;;5063747;28;20615;-66
2022/07/07 09:21:45;;;;;;;3.30;1.33;;;-10.70;99.90;;;;;;5064877;28;20200;-71
2022/07/07 09:24:11;;;;;;;11.00;2.00;;;-13.00;99.90;;;;;;5063503;28;20332;-70
2022/07/07 09:26:42;;;;;;;2.97;1.00;;;-13.00;99.90;;;;;;5064717;28;20333;-74
2022/07/07 09:29:10;;;;;;;10.50;1.63;;;-22.30;99.90;;;;;;5065288;28;20183;-70
2022/07/07 09:31:54;;;;;;;5.80;1.90;;;-22.20;99.90;;;;;;5065056;28;20183;-71
2022/07/07 09:34:29;;;;;;;4.37;0.90;;;-11.20;99.90;;;;;;5064518;28;20583;-72
2022/07/07 09:39:47;;;;;;;2.73;1.80;;;19.80;99.90;;;;;;5069008;28;20203;-72
2022/07/07 09:42:26;;;;;;;3.00;1.20;;;19.90;99.90;;;;;;5068353;28;20199;-72
2022/07/07 09:44:57;;;;;;;2.70;1.23;;;19.90;99.90;;;;;;5069028;28;20175;-67
2022/07/07 09:47:24;;;;;;;0.80;0.80;;;19.90;99.90;;;;;;5068006;28;20242;-67
2022/07/07 09:49:59;;;;;;;3.60;1.47;;;19.60;99.90;;;;;;5069312;28;20188;-69
2022/07/07 09:52:26;;;;;;;0.87;0.57;;;-15.50;99.90;;;;;;5068185;28;20266;-67
2022/07/07 09:54:52;;;;;;;0.90;0.90;;;-23.40;97.10;;;;;;5066468;28;20563;-74
2022/07/07 09:57:18;;;;;;;1.50;0.97;;;-21.80;98.30;;;;;;5068434;28;20182;-71
2022/07/07 09:59:45;;;;;;;1.13;1.03;;;-16.20;99.90;;;;;;5067697;28;20491;-76
2022/07/07 10:02:25;;;;;;;2.57;0.90;;;-18.10;99.90;;;;;;5066116;28;20207;-68
2022/07/07 10:04:55;;;;;;;2.87;1.10;;;17.70;99.90;;;;;;5066865;28;20216;-70
2022/07/07 10:07:29;;;;;;;2.63;1.13;;;19.20;99.90;;;;;;5066694;28;20176;-76
2022/07/07 10:10:04;;;;;;;1.80;1.13;;;-9.90;99.90;;;;;;5068591;28;20571;-66
2022/07/07 10:12:32;;;;;;;2.27;0.93;;;-11.80;99.90;;;;;;5066484;28;20185;-67
2022/07/07 10:15:03;;;;;;;2.97;1.17;;;-14.20;99.90;;;;;;5066826;28;20175;-68
2022/07/07 10:17:30;;;;;;;2.07;1.00;;;-16.30;99.90;;;;;;5066784;28;20171;-74
2022/07/07 10:19:56;;;;;;;3.80;1.87;;;-19.10;99.90;;;;;;5068157;28;20178;-74
2022/07/07 10:22:27;;;;;;;1.50;1.00;;;-9.50;99.90;;;;;;5066773;28;20200;-67
2022/07/07 10:24:54;;;;;;;1.90;1.30;;;-7.30;99.90;;;;;;5066139;28;20184;-72
2022/07/07 10:27:22;;;;;;;5.17;2.13;;;-8.30;99.90;;;;;;5067962;28;20186;-67
2022/07/07 10:29:49;;;;;;;3.67;1.00;;;-9.30;99.90;;;;;;5070030;28;20171;-67
2022/07/07 10:32:22;;;;;;;4.57;1.90;;;-12.40;99.90;;;;;;5065757;28;20176;-67
2022/07/07 10:34:52;;;;;;;1.93;1.30;;;-22.40;99.90;;;;;;5066943;28;20197;-71
2022/07/07 10:37:18;;;;;;;2.00;0.80;;;-20.60;99.90;;;;;;5068485;28;20187;-72
2022/07/07 10:39:47;;;;;;;2.13;0.80;;;-17.70;99.90;;;;;;5068319;28;20251;-73
2022/07/07 10:42:29;;;;;;;6.70;0.77;;;-15.20;99.90;;;;;;5065485;28;20260;-70
2022/07/07 10:44:55;;;;;;;12.47;2.17;;;-24.10;99.90;;;;;;5067454;28;20172;-67
2022/07/07 10:47:21;;;;;;;5.60;1.53;;;-24.90;99.90;;;;;;5069798;28;20665;-67
2022/07/07 10:49:51;;;;;;;0.83;0.50;;;-25.40;99.90;;;;;;5066762;28;20172;-66
2022/07/07 10:52:43;;;;;;;3.90;0.97;;;-27.50;98.90;;;;;;5063976;28;20172;-69
2022/07/07 10:55:09;;;;;;;1.43;1.13;;;-21.30;99.90;;;;;;5067178;28;20187;-67
2022/07/07 10:57:45;;;;;;;2.60;0.80;;;-13.70;99.90;;;;;;5065537;28;20199;-69
2022/07/07 11:00:19;;;;;;;3.77;0.80;;;-18.00;99.90;;;;;;5065708;28;20268;-73
2022/07/07 11:02:49;;;;;;;1.77;0.87;;;-10.10;99.90;;;;;;5065707;28;20203;-66
2022/07/07 11:05:14;;;;;;;0.97;0.77;;;-12.60;99.90;;;;;;5070538;28;20175;-70
2022/07/07 11:07:42;;;;;;;4.80;1.63;;;-15.50;99.90;;;;;;5066707;28;20179;-67
2022/07/07 11:10:10;;;;;;;5.40;1.20;;;-12.40;99.90;;;;;;5068458;28;20301;-66
2022/07/07 11:12:40;;;;;;;1.77;0.73;;;-14.80;99.90;;;;;;5066967;28;20225;-68
2022/07/07 11:15:15;;;;;;;3.53;1.30;;;-16.30;99.90;;;;;;5065591;28;20657;-66
2022/07/07 11:17:45;;;;;;;2.67;1.47;;;-15.30;99.90;;;;;;5064328;28;20206;-67
2022/07/07 11:20:20;;;;;;;1.33;0.70;;;-28.00;98.80;;;;;;5065488;28;20276;-69
2022/07/07 11:22:52;;;;;;;3.70;1.40;;;-22.40;97.80;;;;;;5065030;28;20198;-66
2022/07/07 11:25:20;;;;;;;3.50;1.20;;;-20.70;98.70;;;;;;5064876;28;20171;-66
2022/07/07 11:27:49;;;;;;;6.70;1.17;;;-13.80;99.70;;;;;;5065870;28;20405;-67
2022/07/07 11:30:16;;;;;;;1.30;1.07;;;-23.50;97.30;;;;;;5066853;28;20183;-65
2022/07/07 11:32:43;;;;;;;3.00;0.73;;;-16.90;98.60;;;;;;5064934;28;20322;-67
2022/07/07 11:35:11;;;;;;;4.33;1.17;;;-15.90;99.00;;;;;;5068017;28;20198;-68
2022/07/07 11:37:46;;;;;;;2.53;0.77;;;-14.00;99.90;;;;;;5067615;28;20244;-66
2022/07/07 11:40:15;;;;;;;3.17;1.00;;;-16.20;99.90;;;;;;5065988;28;20194;-65
2022/07/07 11:42:41;;;;;;;2.43;1.23;;;-14.40;99.90;;;;;;5063828;28;20685;-67
2022/07/07 11:45:25;;;;;;;4.73;1.00;;;-22.50;99.90;;;;;;5066651;28;20516;-66
2022/07/07 11:47:56;;;;;;;5.37;1.30;;;-16.70;99.90;;;;;;5065460;28;20572;-65
2022/07/07 11:50:22;;;;;;;3.13;1.40;;;-12.20;99.90;;;;;;5068475;28;20179;-67
2022/07/07 11:52:53;;;;;;;1.87;0.70;;;-8.50;99.90;;;;;;5066758;28;20176;-66
2022/07/07 11:55:19;;;;;;;1.40;0.87;;;-8.80;99.90;;;;;;5065960;28;20194;-66
2022/07/07 11:57:54;;;;;;;1.33;0.70;;;-13.30;99.90;;;;;;5068751;28;20262;-73
2022/07/07 12:00:21;;;;;;;1.73;1.10;;;-23.30;99.90;;;;;;5066444;28;20182;-66
2022/07/07 12:02:50;;;;;;;5.97;1.57;;;-23.20;99.40;;;;;;5065548;28;20210;-64
2022/07/07 12:05:21;;;;;;;3.23;0.90;;;-24.50;97.00;;;;;;5065732;28;20571;-67
2022/07/07 12:07:55;;;;;;;3.63;0.60;;;-21.50;97.30;;;;;;5067395;28;20519;-69
2022/07/07 12:10:34;;;;;;;5.07;1.33;;;-11.70;99.90;;;;;;5060740;28;20191;-66
2022/07/07 12:13:03;;;;;;;2.53;1.10;;;-15.40;98.50;;;;;;5068815;28;20187;-68
2022/07/07 12:15:34;;;;;;;4.53;1.23;;;-15.60;99.90;;;;;;5067095;28;20582;-65
2022/07/07 12:18:02;;;;;;;2.77;1.83;;;-16.80;99.90;;;;;;5068262;28;20609;-67
2022/07/07 12:20:29;;;;;;;4.23;1.73;;;-14.00;99.90;;;;;;5067033;28;20198;-65
2022/07/07 12:22:57;;;;;;;2.30;1.17;;;-16.70;99.90;;;;;;5068153;28;20203;-66
2022/07/07 12:25:26;;;;;;;6.33;1.70;;;-20.50;99.90;;;;;;5066563;28;20312;-67
2022/07/07 12:27:59;;;;;;;1.33;0.83;;;-20.50;99.90;;;;;;5065684;28;20633;-64
2022/07/07 12:30:30;;;;;;;3.53;1.37;;;-15.90;99.90;;;;;;5066491;28;20172;-68
2022/07/07 12:32:56;;;;;;;3.50;1.17;;;-17.30;99.90;;;;;;5070780;28;20582;-71
2022/07/07 12:35:26;;;;;;;2.10;1.27;;;-13.10;99.90;;;;;;5065956;28;20274;-75
2022/07/07 12:37:53;;;;;;;3.60;1.53;;;-23.40;99.90;;;;;;5064348;28;20229;-66
2022/07/07 12:40:19;;;;;;;2.70;1.77;;;-14.40;99.90;;;;;;5065221;28;20211;-72
2022/07/07 12:42:45;;;;;;;7.33;1.83;;;-11.30;99.90;;;;;;5064894;28;20236;-66
2022/07/07 12:45:15;;;;;;;4.67;1.97;;;-13.80;99.90;;;;;;5066253;28;20175;-73